Terminal Aerodrome Forecast
Issued by NWS

Home | Current Version | Previous Version | Text Only | Print | Product List | Glossary On
Versions: 1 2 3 4 5 6 7 8 9 10 11 12 13 14 15 16 17 18 19 20 21 22 23 24
000
FTUS43 KGRR 220200 AAA
TAFLAN
TAF AMD
KLAN 220230Z 2203/2224 00000KT P6SM BKN025
     FM220900 13002KT 1 1/2SM BR OVC015
     FM221100 14003KT 1/4SM FG VV001
     FM221400 15003KT 2SM BR OVC007
     FM221600 14004KT P6SM OVC015=

USA.gov is the U.S. government's official web portal to all federal, state and local government web resources and services.